Time;durP1;ratioP1;P1;durP2;ratioP2;P2;SDS_P1;SDS_P2;PMS_P1;PMS_P2;Temp;Humidity;BMP_temperature;BMP_pressure;BME280_temperature;BME280_humidity;BME280_pressure;Samples;Min_cycle;Max_cycle;Signal;HPM_P1;HPM_P2
2021/12/16 00:07:10;;;;;;;31.02;12.00;;;6.40;99.90;;;;;;6224924;23;20629;-83
2021/12/16 00:09:41;;;;;;;23.38;11.45;;;6.40;99.90;;;;;;6226427;23;20023;-83
2021/12/16 00:31:48;;;;;;;24.02;11.60;;;6.20;99.90;;;;;;6205414;23;20387;-83
2021/12/16 00:34:03;;;;;;;26.75;11.57;;;6.20;99.90;;;;;;6202327;23;20027;-83
2021/12/16 00:36:36;;;;;;;26.33;12.02;;;6.10;99.90;;;;;;6203131;23;20333;-83
2021/12/16 00:39:06;;;;;;;31.25;12.45;;;6.10;99.90;;;;;;6227291;23;20016;-83
2021/12/16 00:41:33;;;;;;;34.35;12.75;;;6.10;99.90;;;;;;6227927;23;20012;-83
2021/12/16 00:44:09;;;;;;;32.47;13.15;;;6.10;99.90;;;;;;6200436;23;20082;-83
2021/12/16 00:54:33;;;;;;;40.05;13.52;;;5.90;99.90;;;;;;6205852;23;20016;-83
2021/12/16 00:57:05;;;;;;;31.40;12.63;;;5.90;99.90;;;;;;6201664;23;20488;-83
2021/12/16 00:59:35;;;;;;;25.85;11.95;;;5.80;99.90;;;;;;6201235;23;20051;-83
2021/12/16 01:50:50;;;;;;;47.55;13.77;;;5.00;99.90;;;;;;6209405;23;20574;-83
2021/12/16 01:56:08;;;;;;;32.53;13.20;;;4.90;99.90;;;;;;6206249;23;20031;-83
2021/12/16 01:58:34;;;;;;;35.60;13.27;;;4.90;99.90;;;;;;6231122;23;20449;-83
2021/12/16 02:03:46;;;;;;;31.92;12.45;;;4.80;99.90;;;;;;6230325;23;20020;-82
2021/12/16 02:09:17;;;;;;;36.55;13.15;;;4.90;99.90;;;;;;6229944;23;20040;-83
2021/12/16 02:38:49;;;;;;;42.50;13.57;;;4.70;99.90;;;;;;6205925;23;20051;-83
2021/12/16 02:41:16;;;;;;;37.55;12.68;;;4.70;99.90;;;;;;6231052;23;20182;-83
2021/12/16 02:48:43;;;;;;;31.77;13.13;;;4.60;99.90;;;;;;6231522;23;20707;-83
2021/12/16 02:51:19;;;;;;;33.17;12.70;;;4.60;99.90;;;;;;6180922;23;20019;-83
2021/12/16 02:53:48;;;;;;;32.60;12.38;;;4.60;99.90;;;;;;6204912;23;20016;-83
2021/12/16 02:56:15;;;;;;;38.08;13.30;;;4.60;99.90;;;;;;6230474;23;20067;-83
2021/12/16 02:58:45;;;;;;;33.45;11.85;;;4.60;99.90;;;;;;6180964;23;20027;-83
2021/12/16 03:01:16;;;;;;;32.17;10.85;;;4.60;99.90;;;;;;6230274;23;20063;-83
2021/12/16 03:03:43;;;;;;;51.10;16.15;;;4.70;99.90;;;;;;6204582;23;20469;-83
2021/12/16 03:06:11;;;;;;;42.83;13.95;;;4.70;99.90;;;;;;6227867;23;20012;-83
2021/12/16 03:08:38;;;;;;;40.20;13.55;;;4.70;99.90;;;;;;6178818;23;20015;-83
2021/12/16 03:11:32;;;;;;;47.47;14.23;;;4.70;99.90;;;;;;6228592;23;20072;-83
2021/12/16 03:16:49;;;;;;;42.90;14.77;;;4.70;99.90;;;;;;6204431;23;20562;-83
2021/12/16 03:19:23;;;;;;;36.95;13.60;;;4.80;99.90;;;;;;6184181;23;20064;-83
2021/12/16 03:21:54;;;;;;;29.63;12.82;;;4.80;99.90;;;;;;6206485;23;20065;-83
2021/12/16 03:25:10;;;;;;;28.55;12.02;;;4.80;99.90;;;;;;6203818;23;20012;-83
2021/12/16 03:35:40;;;;;;;37.78;13.43;;;4.90;99.90;;;;;;6228551;23;20016;-83
2021/12/16 03:38:09;;;;;;;30.85;11.75;;;4.90;99.90;;;;;;6229133;23;20182;-83
2021/12/16 03:40:38;;;;;;;29.75;12.38;;;5.00;99.90;;;;;;6229711;23;20097;-82
2021/12/16 03:43:05;;;;;;;38.58;13.50;;;5.00;99.90;;;;;;6228984;23;20062;-82
2021/12/16 03:49:03;;;;;;;38.58;13.40;;;5.00;99.90;;;;;;6223651;23;20459;-82
2021/12/16 03:51:40;;;;;;;38.63;12.60;;;5.00;99.90;;;;;;6198051;23;20044;-82
2021/12/16 03:54:26;;;;;;;29.25;12.73;;;5.00;99.90;;;;;;6196650;23;20013;-82
2021/12/16 03:56:52;;;;;;;25.05;10.63;;;4.90;99.90;;;;;;6197212;23;20064;-82
2021/12/16 03:59:24;;;;;;;32.55;12.52;;;4.90;99.90;;;;;;6173529;23;20013;-82
2021/12/16 04:01:52;;;;;;;37.17;12.15;;;4.90;99.90;;;;;;6225380;23;20008;-82
2021/12/16 04:04:18;;;;;;;25.27;11.50;;;4.80;99.90;;;;;;6195881;23;20012;-82
2021/12/16 04:06:44;;;;;;;25.70;10.50;;;4.70;99.90;;;;;;6196086;23;20123;-82
2021/12/16 04:09:14;;;;;;;27.10;10.80;;;4.70;99.90;;;;;;6196293;23;20020;-82
2021/12/16 04:11:44;;;;;;;29.67;10.55;;;4.70;99.90;;;;;;6196666;23;20047;-82
2021/12/16 04:14:12;;;;;;;31.45;11.18;;;4.60;99.90;;;;;;6196521;23;20056;-82
2021/12/16 04:16:48;;;;;;;28.55;11.63;;;4.60;99.90;;;;;;6219861;23;20344;-82
2021/12/16 04:19:22;;;;;;;33.00;11.35;;;4.60;99.90;;;;;;6222048;23;20442;-82
2021/12/16 04:21:52;;;;;;;28.08;10.27;;;4.60;99.90;;;;;;6195317;23;20070;-82
2021/12/16 04:24:18;;;;;;;34.13;12.43;;;4.60;99.90;;;;;;6195333;23;20070;-82
2021/12/16 04:26:47;;;;;;;31.20;11.02;;;4.70;99.90;;;;;;6171314;23;20020;-82
2021/12/16 04:29:13;;;;;;;37.75;13.23;;;4.60;99.90;;;;;;6195348;23;20012;-82
2021/12/16 04:31:40;;;;;;;31.42;10.13;;;4.70;99.90;;;;;;6171144;23;20016;-82
2021/12/16 04:34:07;;;;;;;32.92;11.80;;;4.70;99.90;;;;;;6168294;23;20016;-82
2021/12/16 04:36:34;;;;;;;29.60;11.35;;;4.70;99.90;;;;;;6168915;23;20039;-82
2021/12/16 04:39:02;;;;;;;29.77;12.00;;;4.60;99.90;;;;;;6218562;23;20016;-82
2021/12/16 04:41:28;;;;;;;32.72;11.05;;;4.60;99.90;;;;;;6169947;23;20024;-82
2021/12/16 04:43:55;;;;;;;31.10;11.63;;;4.60;99.90;;;;;;6168274;23;20017;-82
2021/12/16 04:46:26;;;;;;;33.42;12.55;;;4.60;99.90;;;;;;6193223;23;20064;-82
2021/12/16 04:48:55;;;;;;;31.45;11.95;;;4.70;99.90;;;;;;6192109;23;20012;-82
2021/12/16 04:51:23;;;;;;;28.90;11.48;;;4.70;99.90;;;;;;6218410;23;20092;-82
2021/12/16 04:53:49;;;;;;;35.45;13.80;;;4.70;99.90;;;;;;6193886;23;20012;-82
2021/12/16 04:56:15;;;;;;;37.63;12.70;;;4.70;99.90;;;;;;6169316;23;20454;-82
2021/12/16 04:58:43;;;;;;;35.63;12.98;;;4.80;99.90;;;;;;6169037;23;20485;-82
2021/12/16 05:01:09;;;;;;;45.08;14.93;;;4.80;99.90;;;;;;6192763;23;20015;-82
2021/12/16 05:03:35;;;;;;;43.03;13.10;;;4.70;99.90;;;;;;6169346;23;20017;-82
2021/12/16 05:06:02;;;;;;;40.17;14.98;;;4.80;99.90;;;;;;6192270;23;20496;-82
2021/12/16 05:08:28;;;;;;;50.38;15.48;;;4.80;99.90;;;;;;6194416;23;20024;-82
2021/12/16 05:10:56;;;;;;;39.58;13.55;;;4.70;99.90;;;;;;6170722;23;20087;-83
2021/12/16 05:13:25;;;;;;;46.30;16.13;;;4.70;99.90;;;;;;6196122;23;20099;-83
2021/12/16 05:15:53;;;;;;;40.45;13.65;;;4.70;99.90;;;;;;6219327;23;20020;-83
2021/12/16 05:18:29;;;;;;;66.70;18.35;;;4.60;99.90;;;;;;6196712;23;20066;-83
2021/12/16 05:20:56;;;;;;;72.13;18.40;;;4.60;99.90;;;;;;6171884;23;20013;-83
2021/12/16 05:28:33;;;;;;;54.65;15.43;;;4.40;99.90;;;;;;6221332;23;20032;-83
2021/12/16 05:30:59;;;;;;;50.42;15.85;;;4.40;99.90;;;;;;6168763;23;20021;-83
2021/12/16 05:33:26;;;;;;;95.53;17.25;;;4.40;99.90;;;;;;6218380;23;20068;-83
2021/12/16 05:35:53;;;;;;;87.53;16.13;;;4.30;99.90;;;;;;6195295;23;20012;-83
2021/12/16 05:38:19;;;;;;;41.97;14.43;;;4.30;99.90;;;;;;6170947;23;20115;-83
2021/12/16 05:40:45;;;;;;;38.40;14.97;;;4.30;99.90;;;;;;6172579;23;20016;-83
2021/12/16 05:43:14;;;;;;;40.38;14.50;;;4.40;99.90;;;;;;6169415;23;20051;-83
2021/12/16 05:45:41;;;;;;;38.85;14.55;;;4.40;99.90;;;;;;6195959;23;20024;-83
2021/12/16 05:48:10;;;;;;;72.88;19.73;;;4.40;99.90;;;;;;6226212;23;20082;-83
2021/12/16 05:50:39;;;;;;;48.22;16.55;;;4.30;99.90;;;;;;6229527;23;20020;-83
2021/12/16 05:53:06;;;;;;;35.28;14.02;;;4.40;99.90;;;;;;6228704;23;20016;-83
2021/12/16 05:55:32;;;;;;;36.85;14.85;;;4.40;99.90;;;;;;6228458;23;20026;-83
2021/12/16 05:58:00;;;;;;;42.30;15.13;;;4.40;99.90;;;;;;6228800;23;20353;-83
2021/12/16 06:00:33;;;;;;;65.82;19.48;;;4.40;99.90;;;;;;6229353;23;20016;-83
2021/12/16 06:02:59;;;;;;;43.63;16.60;;;4.40;99.90;;;;;;6228474;23;20371;-83
2021/12/16 06:05:26;;;;;;;143.52;29.13;;;4.40;99.90;;;;;;6203039;23;20023;-83
2021/12/16 06:07:53;;;;;;;46.03;17.27;;;4.40;99.90;;;;;;6180014;23;20064;-83
2021/12/16 06:12:51;;;;;;;34.17;14.52;;;4.40;99.90;;;;;;6204472;23;20113;-83
2021/12/16 06:15:40;;;;;;;50.90;16.53;;;4.50;99.90;;;;;;6204438;23;20012;-83
2021/12/16 06:26:47;;;;;;;35.28;14.68;;;4.60;99.90;;;;;;6231290;23;20091;-83
2021/12/16 06:29:13;;;;;;;42.78;16.38;;;4.60;99.90;;;;;;6231423;23;20126;-83
2021/12/16 06:31:39;;;;;;;37.27;14.87;;;4.70;99.90;;;;;;6181198;23;20019;-83
2021/12/16 06:34:05;;;;;;;56.20;18.15;;;4.50;99.90;;;;;;6180077;23;20044;-83
2021/12/16 06:36:30;;;;;;;35.97;13.50;;;4.50;99.90;;;;;;6179652;23;20020;-83
2021/12/16 06:38:56;;;;;;;40.80;14.70;;;4.50;99.90;;;;;;6180580;23;20016;-83
2021/12/16 06:41:23;;;;;;;706.70;56.27;;;4.40;99.90;;;;;;6230110;23;20239;-83
2021/12/16 06:43:52;;;;;;;269.90;25.70;;;4.40;99.90;;;;;;6205013;23;20012;-83
2021/12/16 06:46:20;;;;;;;171.55;21.17;;;4.40;99.90;;;;;;6231379;23;20450;-83
2021/12/16 06:48:54;;;;;;;332.77;33.70;;;4.30;99.90;;;;;;6228942;23;20016;-83
2021/12/16 06:51:33;;;;;;;172.52;20.33;;;4.30;99.90;;;;;;6205897;23;20130;-83
2021/12/16 06:54:06;;;;;;;84.40;18.80;;;4.30;99.90;;;;;;6182215;23;20385;-83
2021/12/16 06:56:40;;;;;;;382.05;38.25;;;4.30;99.90;;;;;;6205871;23;20016;-83
2021/12/16 06:59:11;;;;;;;338.33;30.58;;;4.30;99.90;;;;;;6229562;23;20063;-83
2021/12/16 07:04:06;;;;;;;212.27;25.17;;;4.30;99.90;;;;;;6204797;23;20020;-83
2021/12/16 07:06:33;;;;;;;169.45;23.90;;;4.30;99.90;;;;;;6230595;23;20270;-82
2021/12/16 07:09:09;;;;;;;159.73;22.55;;;4.30;99.90;;;;;;6205501;23;20011;-83
2021/12/16 07:11:41;;;;;;;215.75;26.25;;;4.30;99.90;;;;;;6231248;23;20027;-83
2021/12/16 07:14:12;;;;;;;103.95;17.08;;;4.30;99.90;;;;;;6207636;23;20020;-83
2021/12/16 07:16:39;;;;;;;78.97;19.52;;;4.30;99.90;;;;;;6228350;23;20012;-83
2021/12/16 07:19:04;;;;;;;168.02;24.27;;;4.30;99.90;;;;;;6179972;23;20020;-83
2021/12/16 07:21:37;;;;;;;621.63;59.17;;;4.30;99.90;;;;;;6204434;23;20388;-83
2021/12/16 07:24:08;;;;;;;220.20;28.30;;;4.30;99.90;;;;;;6227677;23;20352;-83
2021/12/16 07:26:34;;;;;;;156.93;21.48;;;4.20;99.90;;;;;;6229807;23;20095;-83
2021/12/16 07:29:01;;;;;;;203.13;28.13;;;4.20;99.90;;;;;;6204491;23;20012;-83
2021/12/16 07:31:28;;;;;;;170.18;24.60;;;4.30;99.90;;;;;;6229196;23;20018;-83
2021/12/16 07:33:55;;;;;;;141.93;26.05;;;4.20;99.90;;;;;;6203543;23;20087;-83
2021/12/16 07:36:21;;;;;;;127.90;17.90;;;4.20;99.90;;;;;;6230422;23;20012;-83
2021/12/16 07:38:47;;;;;;;247.93;25.52;;;4.10;99.90;;;;;;6205314;23;20023;-83
2021/12/16 07:41:17;;;;;;;181.00;20.85;;;4.10;99.90;;;;;;6230764;23;20012;-82
2021/12/16 07:43:58;;;;;;;168.77;23.70;;;4.10;99.90;;;;;;6205733;23;20020;-82
2021/12/16 07:46:25;;;;;;;177.40;23.45;;;4.10;99.90;;;;;;6183712;23;20023;-82
2021/12/16 07:48:51;;;;;;;337.80;40.58;;;4.10;99.90;;;;;;6229201;23;20441;-82
2021/12/16 07:51:23;;;;;;;150.27;23.77;;;4.20;99.90;;;;;;6226110;23;20028;-82
2021/12/16 07:53:49;;;;;;;366.05;39.85;;;4.20;99.90;;;;;;6162079;23;20259;-81
2021/12/16 07:56:15;;;;;;;399.30;44.57;;;4.20;99.90;;;;;;6130982;23;20050;-81
2021/12/16 07:58:40;;;;;;;122.60;20.77;;;4.30;99.90;;;;;;6182371;23;20267;-81
2021/12/16 08:01:07;;;;;;;178.00;26.67;;;4.30;99.90;;;;;;6108659;23;20059;-81
2021/12/16 08:03:36;;;;;;;303.13;38.25;;;4.30;99.90;;;;;;6158179;23;20318;-81
2021/12/16 08:06:06;;;;;;;166.95;23.60;;;4.30;99.90;;;;;;6181361;23;20040;-81
2021/12/16 08:08:32;;;;;;;310.60;37.58;;;4.30;99.90;;;;;;6158639;23;20109;-81
2021/12/16 08:10:58;;;;;;;301.08;36.97;;;4.30;99.90;;;;;;6134187;23;20095;-81
2021/12/16 08:13:25;;;;;;;160.70;21.48;;;4.40;99.90;;;;;;6183222;23;20021;-82
2021/12/16 08:15:52;;;;;;;137.77;20.48;;;4.40;99.90;;;;;;6134681;23;20020;-82
2021/12/16 08:18:18;;;;;;;142.07;21.45;;;4.40;99.90;;;;;;6134479;23;20047;-81
2021/12/16 08:20:43;;;;;;;110.30;19.03;;;4.50;99.90;;;;;;6134034;23;20009;-81
2021/12/16 08:23:09;;;;;;;123.30;22.23;;;4.50;99.90;;;;;;6134548;23;20376;-81
2021/12/16 08:25:38;;;;;;;111.03;21.83;;;4.50;99.90;;;;;;6134559;23;20247;-81
2021/12/16 08:28:05;;;;;;;203.65;32.00;;;4.50;99.90;;;;;;6158295;23;20506;-81
2021/12/16 08:30:35;;;;;;;336.73;40.22;;;4.60;99.90;;;;;;6133448;23;20024;-81
2021/12/16 08:33:05;;;;;;;201.25;31.13;;;4.60;99.90;;;;;;6157983;23;20016;-81
2021/12/16 08:35:32;;;;;;;141.38;23.33;;;4.70;99.90;;;;;;6133295;23;20016;-81
2021/12/16 08:37:57;;;;;;;196.35;27.38;;;4.70;99.90;;;;;;6134044;23;20488;-81
2021/12/16 08:40:24;;;;;;;158.97;25.63;;;4.80;99.90;;;;;;6158168;23;20023;-81
2021/12/16 08:42:51;;;;;;;111.25;18.40;;;4.80;99.90;;;;;;6183176;23;20044;-81
2021/12/16 08:45:27;;;;;;;174.70;24.70;;;4.80;99.90;;;;;;6133445;23;20067;-81
2021/12/16 08:47:54;;;;;;;355.50;42.53;;;4.80;99.90;;;;;;6207407;23;20343;-81
2021/12/16 08:50:23;;;;;;;124.20;21.02;;;4.90;99.90;;;;;;6133341;23;20095;-81
2021/12/16 08:52:49;;;;;;;369.13;43.97;;;4.90;99.90;;;;;;6157803;23;20073;-82
2021/12/16 08:55:18;;;;;;;317.63;40.50;;;5.00;99.90;;;;;;6181887;23;20021;-82
2021/12/16 08:57:44;;;;;;;264.20;36.28;;;5.00;99.90;;;;;;6158167;23;20019;-82
2021/12/16 09:00:17;;;;;;;299.55;39.20;;;5.00;99.90;;;;;;6085807;23;20029;-82
2021/12/16 09:02:43;;;;;;;206.15;29.80;;;5.00;99.90;;;;;;6157043;23;20092;-82
2021/12/16 09:05:09;;;;;;;282.40;35.33;;;5.00;99.90;;;;;;6131589;23;20432;-82
2021/12/16 09:07:36;;;;;;;298.77;39.88;;;5.00;99.90;;;;;;6181781;23;20033;-82
2021/12/16 09:10:04;;;;;;;134.43;22.98;;;5.10;99.90;;;;;;6156337;23;20341;-82
2021/12/16 09:14:59;;;;;;;186.95;29.95;;;5.10;99.90;;;;;;6134118;23;20025;-82
2021/12/16 09:17:27;;;;;;;347.02;42.05;;;5.10;99.90;;;;;;6132858;23;20027;-82
2021/12/16 09:19:55;;;;;;;304.60;39.63;;;5.20;99.90;;;;;;6157651;23;20091;-82
2021/12/16 09:22:22;;;;;;;330.15;43.60;;;5.20;99.90;;;;;;6158443;23;20539;-81
2021/12/16 09:24:50;;;;;;;315.10;39.50;;;5.30;99.90;;;;;;6135264;23;20044;-81
2021/12/16 09:27:17;;;;;;;288.33;38.38;;;5.30;99.90;;;;;;6160077;23;20055;-81
2021/12/16 09:29:45;;;;;;;232.48;31.48;;;5.30;99.90;;;;;;6185167;23;20039;-81
2021/12/16 09:32:11;;;;;;;414.10;47.92;;;5.40;99.90;;;;;;6134320;23;20024;-81
2021/12/16 09:34:40;;;;;;;309.33;41.05;;;5.40;99.90;;;;;;6159334;23;20023;-81
2021/12/16 09:37:07;;;;;;;306.33;40.67;;;5.40;99.90;;;;;;6159739;23;20337;-81
2021/12/16 09:39:33;;;;;;;369.70;47.33;;;5.50;99.90;;;;;;6136081;23;20039;-81
2021/12/16 09:42:01;;;;;;;350.10;43.50;;;5.50;99.90;;;;;;6159438;23;20467;-81
2021/12/16 09:44:28;;;;;;;209.13;32.58;;;5.50;99.90;;;;;;6159791;23;20059;-81
2021/12/16 09:46:55;;;;;;;260.02;35.47;;;5.60;99.90;;;;;;6160426;23;20017;-81
2021/12/16 09:49:23;;;;;;;326.83;41.67;;;5.70;99.90;;;;;;6159820;23;20024;-81
2021/12/16 09:51:51;;;;;;;336.98;43.78;;;5.70;99.90;;;;;;6160574;23;20055;-82
2021/12/16 09:54:23;;;;;;;320.27;41.78;;;5.80;99.90;;;;;;6154168;23;20027;-82
2021/12/16 09:56:51;;;;;;;355.08;47.30;;;5.90;99.90;;;;;;6180349;23;20075;-82
2021/12/16 09:59:19;;;;;;;305.83;41.17;;;5.90;99.90;;;;;;6155181;23;20020;-82
2021/12/16 10:01:47;;;;;;;249.35;34.95;;;6.00;99.90;;;;;;6130513;23;20029;-82
2021/12/16 10:04:19;;;;;;;302.13;39.88;;;6.10;99.90;;;;;;6153369;23;20075;-83
2021/12/16 10:06:47;;;;;;;394.83;46.50;;;6.20;99.90;;;;;;6150239;23;20013;-83
2021/12/16 10:09:13;;;;;;;295.70;37.75;;;6.20;99.90;;;;;;6153016;23;20016;-83
2021/12/16 10:11:43;;;;;;;354.02;43.60;;;6.30;99.90;;;;;;6128132;23;20017;-83
2021/12/16 10:14:20;;;;;;;195.15;29.25;;;6.40;99.90;;;;;;6152956;23;20020;-83
2021/12/16 10:19:58;;;;;;;338.48;44.58;;;6.50;99.90;;;;;;6063044;23;20158;-83
2021/12/16 10:22:33;;;;;;;416.30;50.53;;;6.60;99.90;;;;;;6061083;23;20052;-83
2021/12/16 10:25:30;;;;;;;238.02;35.10;;;6.70;99.90;;;;;;6113684;23;20013;-83
2021/12/16 10:27:56;;;;;;;288.23;39.42;;;6.70;99.90;;;;;;6152049;23;20401;-83
2021/12/16 10:30:23;;;;;;;339.30;46.35;;;6.80;99.90;;;;;;6150567;23;20104;-83
2021/12/16 10:32:50;;;;;;;326.38;43.67;;;6.80;99.90;;;;;;6127415;23;20531;-83
2021/12/16 10:35:25;;;;;;;367.77;48.05;;;6.80;99.90;;;;;;6127287;23;20504;-83
2021/12/16 10:37:59;;;;;;;230.02;33.22;;;6.90;99.90;;;;;;6153574;23;20112;-83
2021/12/16 10:40:52;;;;;;;350.00;46.33;;;7.00;99.90;;;;;;6153911;23;20017;-83
2021/12/16 10:43:35;;;;;;;205.15;31.02;;;7.00;99.90;;;;;;6153981;23;20445;-83
2021/12/16 10:46:12;;;;;;;302.45;38.17;;;7.10;99.90;;;;;;6155145;23;20017;-83
2021/12/16 10:48:44;;;;;;;314.80;40.90;;;7.20;99.90;;;;;;6155836;23;20476;-83
2021/12/16 10:51:18;;;;;;;308.65;48.00;;;7.30;99.90;;;;;;6153638;23;20013;-83
2021/12/16 10:53:53;;;;;;;85.43;21.52;;;7.30;99.90;;;;;;6153500;23;20049;-83
2021/12/16 10:56:25;;;;;;;264.95;40.28;;;7.30;99.90;;;;;;6179390;23;20017;-83
2021/12/16 10:58:51;;;;;;;247.68;38.08;;;7.40;99.90;;;;;;6154705;23;20036;-83
2021/12/16 11:01:32;;;;;;;283.03;45.80;;;7.50;99.90;;;;;;6154739;23;20438;-83
2021/12/16 11:03:58;;;;;;;144.63;31.27;;;7.60;99.90;;;;;;6178777;23;20068;-83
2021/12/16 11:06:36;;;;;;;228.18;40.72;;;7.70;99.90;;;;;;6128675;23;20020;-83
2021/12/16 11:09:22;;;;;;;226.13;40.67;;;7.70;99.90;;;;;;6178618;23;20017;-83
2021/12/16 11:12:03;;;;;;;77.55;24.95;;;7.80;99.90;;;;;;6154603;23;20016;-83
2021/12/16 11:14:29;;;;;;;87.55;25.33;;;7.90;99.90;;;;;;6154464;23;20048;-83
2021/12/16 11:17:00;;;;;;;169.80;35.40;;;7.90;99.90;;;;;;6105577;23;20393;-83
2021/12/16 11:19:47;;;;;;;165.02;36.35;;;8.00;99.90;;;;;;6126199;23;20100;-83
2021/12/16 11:22:18;;;;;;;133.10;33.78;;;8.00;99.90;;;;;;6151898;23;20465;-83
2021/12/16 11:24:44;;;;;;;149.05;35.83;;;8.10;99.90;;;;;;6153424;23;20051;-83
2021/12/16 11:27:31;;;;;;;60.35;23.40;;;8.10;99.90;;;;;;6128639;23;20017;-83
2021/12/16 11:29:59;;;;;;;73.72;24.20;;;8.20;99.90;;;;;;6153002;23;20048;-83
2021/12/16 11:32:46;;;;;;;84.97;27.23;;;8.30;99.90;;;;;;6152552;23;20021;-83
2021/12/16 11:35:30;;;;;;;47.55;20.67;;;8.30;99.90;;;;;;6153090;23;20021;-83
2021/12/16 11:37:59;;;;;;;108.82;31.13;;;8.40;99.90;;;;;;6178026;23;20013;-83
2021/12/16 11:40:26;;;;;;;74.60;26.33;;;8.40;99.90;;;;;;6152628;23;20013;-83
2021/12/16 11:43:01;;;;;;;50.92;21.02;;;8.50;99.90;;;;;;6128062;23;20488;-83
2021/12/16 11:45:36;;;;;;;60.38;24.38;;;8.50;99.90;;;;;;6152113;23;20040;-83
2021/12/16 11:48:04;;;;;;;75.75;25.63;;;8.50;99.90;;;;;;6152474;23;20055;-83
2021/12/16 11:50:37;;;;;;;82.22;26.30;;;8.50;99.90;;;;;;6152071;23;20017;-83
2021/12/16 11:53:03;;;;;;;126.82;33.15;;;8.60;99.90;;;;;;6152582;23;20100;-83
2021/12/16 11:55:35;;;;;;;75.47;26.17;;;8.60;99.90;;;;;;6127828;23;20524;-83
2021/12/16 11:58:03;;;;;;;77.05;27.10;;;8.60;99.90;;;;;;6152988;23;20020;-83
2021/12/16 12:00:38;;;;;;;61.72;23.90;;;8.60;99.90;;;;;;6152885;23;20508;-83
2021/12/16 12:03:09;;;;;;;;;;;8.60;99.90;;;;;;6153508;23;20017;-82
2021/12/16 12:05:42;;;;;;;52.20;20.30;;;8.60;99.90;;;;;;6175884;23;20404;-82
2021/12/16 12:08:22;;;;;;;61.08;21.70;;;8.60;99.90;;;;;;6142811;23;20041;-83
2021/12/16 12:10:53;;;;;;;54.42;20.42;;;8.60;99.90;;;;;;6152590;23;20016;-83
2021/12/16 12:13:22;;;;;;;51.53;22.23;;;8.70;99.90;;;;;;6153621;23;20039;-83
2021/12/16 12:16:07;;;;;;;58.27;21.67;;;8.70;99.90;;;;;;6153841;23;20249;-83
2021/12/16 12:18:49;;;;;;;72.35;24.13;;;8.70;99.90;;;;;;6177679;23;20269;-83
2021/12/16 12:21:57;;;;;;;71.33;24.13;;;8.70;99.90;;;;;;6152813;23;20071;-83
2021/12/16 12:24:31;;;;;;;76.13;25.25;;;8.80;99.90;;;;;;6178195;23;20701;-83
2021/12/16 12:27:00;;;;;;;57.27;22.30;;;8.80;99.90;;;;;;6152737;23;20417;-83
2021/12/16 12:29:42;;;;;;;61.27;22.97;;;8.80;99.90;;;;;;6153308;23;20259;-83
2021/12/16 12:32:15;;;;;;;51.07;21.20;;;8.80;99.90;;;;;;6152519;23;20248;-83
2021/12/16 12:34:44;;;;;;;49.20;21.87;;;8.80;99.90;;;;;;6154188;23;20249;-83
2021/12/16 12:37:14;;;;;;;44.77;19.77;;;8.80;99.90;;;;;;6153811;23;20268;-83
2021/12/16 12:39:47;;;;;;;59.83;23.83;;;8.80;99.90;;;;;;6153396;23;20240;-83
2021/12/16 12:42:15;;;;;;;47.00;18.90;;;8.80;99.90;;;;;;6178484;23;20241;-83
2021/12/16 12:44:42;;;;;;;52.20;20.50;;;8.90;99.90;;;;;;6105734;23;20629;-83
2021/12/16 12:47:12;;;;;;;63.40;24.77;;;8.90;99.90;;;;;;6153794;23;20432;-83
2021/12/16 12:49:38;;;;;;;59.47;23.43;;;8.90;99.90;;;;;;6153430;23;20248;-83
2021/12/16 12:52:08;;;;;;;42.57;19.23;;;8.90;99.90;;;;;;6129599;23;20368;-83
2021/12/16 12:54:35;;;;;;;52.07;20.80;;;9.00;99.90;;;;;;6153276;23;20265;-83
2021/12/16 12:57:24;;;;;;;36.93;18.70;;;9.00;99.90;;;;;;6178290;23;20359;-83
2021/12/16 12:59:51;;;;;;;36.23;18.67;;;9.00;99.90;;;;;;6154119;23;20236;-83
2021/12/16 13:02:23;;;;;;;39.50;19.50;;;9.00;99.90;;;;;;6154841;23;20329;-83
2021/12/16 13:05:00;;;;;;;42.37;18.90;;;9.00;99.90;;;;;;6179410;23;20240;-83
2021/12/16 13:07:40;;;;;;;40.07;19.93;;;9.00;99.90;;;;;;6152885;23;20266;-83
2021/12/16 13:10:22;;;;;;;43.20;20.43;;;9.10;99.90;;;;;;6153245;23;20248;-83
2021/12/16 13:13:03;;;;;;;39.77;19.07;;;9.10;99.90;;;;;;6178354;23;20330;-83
2021/12/16 13:15:46;;;;;;;42.67;20.50;;;9.20;99.90;;;;;;6154055;23;20256;-83
2021/12/16 13:32:41;;;;;;;47.47;20.07;;;9.30;99.90;;;;;;6178624;23;20257;-83
2021/12/16 13:37:46;;;;;;;47.37;21.13;;;9.40;99.90;;;;;;6177826;23;20280;-83
2021/12/16 13:40:14;;;;;;;57.47;28.70;;;9.40;99.90;;;;;;6151267;23;20248;-83
2021/12/16 13:42:50;;;;;;;44.50;24.43;;;9.40;99.90;;;;;;6152296;23;20252;-83
2021/12/16 13:45:29;;;;;;;50.40;24.63;;;9.50;99.90;;;;;;6155027;23;20245;-83
2021/12/16 14:02:48;;;;;;;48.50;22.77;;;9.50;99.90;;;;;;6177401;23;20244;-83
2021/12/16 14:05:29;;;;;;;41.03;19.70;;;9.50;99.90;;;;;;6152736;23;20244;-83
2021/12/16 14:08:02;;;;;;;36.30;18.20;;;9.50;99.90;;;;;;6179788;23;20243;-83
2021/12/16 14:10:46;;;;;;;38.70;19.10;;;9.50;99.90;;;;;;6153494;23;20291;-84
2021/12/16 14:16:43;;;;;;;40.63;19.57;;;9.50;99.90;;;;;;6177949;23;20668;-84
2021/12/16 14:45:12;;;;;;;49.33;25.27;;;9.30;99.90;;;;;;6130897;23;20349;-84
2021/12/16 14:47:29;;;;;;;51.35;25.90;;;9.20;99.90;;;;;;6177396;23;20279;-84
2021/12/16 14:49:56;;;;;;;48.23;26.10;;;9.30;99.90;;;;;;6152344;23;20052;-84
2021/12/16 14:52:28;;;;;;;40.37;21.70;;;9.20;99.90;;;;;;6152383;23;20354;-84
2021/12/16 14:55:01;;;;;;;51.93;24.17;;;9.20;99.90;;;;;;6151602;23;20402;-84
2021/12/16 14:57:41;;;;;;;48.87;22.57;;;9.20;99.90;;;;;;6152799;23;20272;-84
2021/12/16 15:00:28;;;;;;;46.27;21.70;;;9.20;99.90;;;;;;6152416;23;20244;-84
2021/12/16 15:03:04;;;;;;;47.20;22.53;;;9.20;99.90;;;;;;6151660;23;20374;-86
2021/12/16 15:05:37;;;;;;;48.03;22.13;;;9.20;99.90;;;;;;6152730;23;20721;-85
2021/12/16 15:08:06;;;;;;;51.03;22.70;;;9.20;99.90;;;;;;6152568;23;20386;-85
2021/12/16 15:10:32;;;;;;;45.37;22.47;;;9.20;99.90;;;;;;6151718;23;20331;-85
2021/12/16 15:13:19;;;;;;;55.40;23.53;;;9.10;99.90;;;;;;6152199;23;20244;-85
2021/12/16 15:16:02;;;;;;;60.77;23.73;;;9.10;99.90;;;;;;6113556;23;20255;-84
2021/12/16 15:40:54;;;;;;;90.37;28.23;;;8.90;99.90;;;;;;6156172;23;20252;-84
2021/12/16 15:43:21;;;;;;;77.10;24.42;;;8.90;99.90;;;;;;6131651;23;20287;-84
2021/12/16 15:45:52;;;;;;;83.80;25.10;;;8.90;99.90;;;;;;6103455;23;20015;-84
2021/12/16 15:48:22;;;;;;;71.27;22.07;;;8.80;99.90;;;;;;6128070;23;20017;-84
2021/12/16 15:50:51;;;;;;;69.77;22.80;;;8.90;99.90;;;;;;6152123;23;20271;-84
2021/12/16 15:53:24;;;;;;;77.93;23.92;;;8.80;99.90;;;;;;6157912;23;20315;-84
2021/12/16 15:56:05;;;;;;;72.43;25.80;;;8.80;99.90;;;;;;6159364;23;20055;-83
2021/12/16 15:58:33;;;;;;;63.63;22.87;;;8.80;99.90;;;;;;6159650;23;20274;-83
2021/12/16 16:01:13;;;;;;;76.13;23.73;;;8.80;99.90;;;;;;6160396;23;20294;-83
2021/12/16 16:03:40;;;;;;;74.18;21.88;;;8.80;99.90;;;;;;6158609;23;20244;-83
2021/12/16 16:06:08;;;;;;;71.87;22.50;;;8.80;99.90;;;;;;6160297;23;20358;-83
2021/12/16 16:08:41;;;;;;;73.30;21.83;;;8.80;99.90;;;;;;6183835;23;20730;-83
2021/12/16 16:11:11;;;;;;;71.50;21.58;;;8.80;99.90;;;;;;6160227;23;20283;-84
2021/12/16 16:13:49;;;;;;;58.83;20.30;;;8.80;99.90;;;;;;6156613;23;20655;-84
2021/12/16 16:16:19;;;;;;;74.63;22.93;;;8.80;99.90;;;;;;6156206;23;20440;-84
2021/12/16 16:18:55;;;;;;;60.37;20.90;;;8.80;99.90;;;;;;6150930;23;20945;-84
2021/12/16 16:21:35;;;;;;;59.87;21.83;;;8.80;99.90;;;;;;6078478;23;20309;-85
2021/12/16 16:24:12;;;;;;;68.73;22.67;;;8.80;99.90;;;;;;6152120;23;20244;-85
2021/12/16 16:26:42;;;;;;;78.07;23.70;;;8.80;99.90;;;;;;6153013;23;20247;-85
2021/12/16 16:29:12;;;;;;;70.40;23.58;;;8.80;99.90;;;;;;6153068;23;20247;-85
2021/12/16 16:31:40;;;;;;;81.53;24.47;;;8.80;99.90;;;;;;6152016;23;20067;-84
2021/12/16 16:34:16;;;;;;;67.22;24.65;;;8.80;99.90;;;;;;6153722;23;20301;-84
2021/12/16 16:36:45;;;;;;;81.20;31.65;;;8.80;99.90;;;;;;6153975;23;20017;-84
2021/12/16 16:39:15;;;;;;;86.30;46.13;;;8.80;99.90;;;;;;6154639;23;20016;-83
2021/12/16 16:41:44;;;;;;;73.03;30.60;;;8.70;99.90;;;;;;6151950;23;20948;-84
2021/12/16 16:44:14;;;;;;;82.17;45.80;;;8.70;99.90;;;;;;6153224;23;20251;-84
2021/12/16 16:47:01;;;;;;;70.10;29.37;;;8.70;99.90;;;;;;6153861;23;20243;-84
2021/12/16 16:49:48;;;;;;;71.57;26.15;;;8.70;99.90;;;;;;6180161;23;20270;-84
2021/12/16 16:52:18;;;;;;;51.92;22.92;;;8.70;99.90;;;;;;6160008;23;20009;-84
2021/12/16 16:54:52;;;;;;;60.93;24.47;;;8.60;99.90;;;;;;6153377;23;20027;-84
2021/12/16 16:57:21;;;;;;;72.55;26.25;;;8.60;99.90;;;;;;6156965;23;20275;-84